createdAt,value
2018-03-30T00:00:01.989Z,100721.99
2018-03-30T00:02:27.755Z,100720.65
2018-03-30T00:04:53.515Z,100715.01
2018-03-30T00:07:19.289Z,100723.30
2018-03-30T00:09:56.131Z,100730.34
2018-03-30T00:12:21.886Z,100724.59
2018-03-30T00:14:47.633Z,100715.38
2018-03-30T00:17:13.551Z,100709.69
2018-03-30T00:19:39.287Z,100707.48
2018-03-30T00:22:05.018Z,100711.81
2018-03-30T00:24:30.765Z,100707.09
2018-03-30T00:26:56.530Z,100720.99
2018-03-30T00:29:22.269Z,100721.94
2018-03-30T00:31:48.014Z,100721.95
2018-03-30T00:34:13.774Z,100717.05
2018-03-30T00:36:39.532Z,100709.14
2018-03-30T00:39:05.286Z,100708.19
2018-03-30T00:41:31.041Z,100706.42
2018-03-30T00:43:56.798Z,100714.61
2018-03-30T00:46:22.545Z,100704.13
2018-03-30T00:48:49.315Z,100712.78
2018-03-30T00:51:15.243Z,100710.16
2018-03-30T00:53:46.853Z,100703.52
2018-03-30T00:56:12.611Z,100710.41
2018-03-30T00:58:38.369Z,100712.27
2018-03-30T01:01:04.227Z,100718.31
2018-03-30T01:03:29.989Z,100717.23
2018-03-30T01:05:55.737Z,100715.44
2018-03-30T01:08:21.494Z,100715.95
2018-03-30T01:10:47.255Z,100716.06
2018-03-30T01:13:13.006Z,100714.26
2018-03-30T01:15:38.790Z,100715.23
2018-03-30T01:18:04.547Z,100718.67
2018-03-30T01:20:30.297Z,100720.85
2018-03-30T01:22:56.110Z,100722.50
2018-03-30T01:25:21.846Z,100733.73
2018-03-30T01:27:47.588Z,100733.62
2018-03-30T01:30:13.371Z,100732.31
2018-03-30T01:32:39.141Z,100737.23
2018-03-30T01:35:04.903Z,100727.58
2018-03-30T01:37:30.645Z,100725.93
2018-03-30T01:39:56.399Z,100725.20
2018-03-30T01:42:22.161Z,100725.75
2018-03-30T01:44:47.928Z,100728.45
2018-03-30T01:47:13.665Z,100724.95
2018-03-30T01:49:39.494Z,100724.41
2018-03-30T01:52:05.257Z,100725.30
2018-03-30T01:54:31.021Z,100720.66
2018-03-30T01:56:56.774Z,100723.59
2018-03-30T01:59:22.543Z,100720.07
2018-03-30T02:01:48.274Z,100729.51
2018-03-30T02:04:14.047Z,100736.41
2018-03-30T02:06:40.170Z,100733.27
2018-03-30T02:09:05.939Z,100725.33
2018-03-30T02:11:31.690Z,100717.47
2018-03-30T02:13:57.437Z,100722.29
2018-03-30T02:16:23.178Z,100722.31
2018-03-30T02:18:49.075Z,100721.34
2018-03-30T02:21:14.871Z,100722.84
2018-03-30T02:23:40.609Z,100725.03
2018-03-30T02:26:06.355Z,100730.95
2018-03-30T02:28:32.097Z,100738.02
2018-03-30T02:30:57.863Z,100741.56
2018-03-30T02:33:23.616Z,100742.97
2018-03-30T02:35:49.379Z,100749.60
2018-03-30T02:38:15.116Z,100750.02
2018-03-30T02:40:40.883Z,100749.81
2018-03-30T02:43:06.627Z,100758.56
2018-03-30T02:45:32.397Z,100750.80
2018-03-30T02:47:58.158Z,100746.79
2018-03-30T02:50:23.933Z,100746.31
2018-03-30T02:52:49.699Z,100755.30
2018-03-30T02:55:15.446Z,100748.27
2018-03-30T02:57:41.207Z,100751.29
2018-03-30T03:00:07.354Z,100750.76
2018-03-30T03:02:33.158Z,100746.13
2018-03-30T03:04:58.906Z,100748.61
2018-03-30T03:07:24.651Z,100741.34
2018-03-30T03:09:50.454Z,100746.02
2018-03-30T03:12:16.228Z,100739.58
2018-03-30T03:14:41.966Z,100739.91
2018-03-30T03:17:07.722Z,100737.34
2018-03-30T03:19:33.474Z,100739.63
2018-03-30T03:21:59.230Z,100741.75
2018-03-30T03:24:24.970Z,100737.92
2018-03-30T03:26:50.738Z,100729.91
2018-03-30T03:29:16.474Z,100732.97
2018-03-30T03:31:42.244Z,100727.20
2018-03-30T03:34:07.986Z,100726.41
2018-03-30T03:36:33.742Z,100731.05
2018-03-30T03:38:59.486Z,100724.89
2018-03-30T03:41:25.242Z,100730.02
2018-03-30T03:43:50.985Z,100730.44
2018-03-30T03:46:16.737Z,100726.76
2018-03-30T03:48:42.641Z,100734.41
2018-03-30T03:51:08.423Z,100733.57
2018-03-30T03:53:34.174Z,100729.73
2018-03-30T03:55:59.926Z,100731.92
2018-03-30T03:58:25.668Z,100735.58
2018-03-30T04:00:51.424Z,100734.28
2018-03-30T04:03:17.178Z,100738.91
2018-03-30T04:05:42.929Z,100739.85
2018-03-30T04:08:08.709Z,100737.45
2018-03-30T04:10:34.454Z,100736.66
2018-03-30T04:13:00.222Z,100738.76
2018-03-30T04:15:25.966Z,100743.78
2018-03-30T04:17:51.723Z,100746.84
2018-03-30T04:20:17.463Z,100754.16
2018-03-30T04:22:43.207Z,100741.38
2018-03-30T04:25:08.950Z,100740.23
2018-03-30T04:27:34.711Z,100734.13
2018-03-30T04:30:00.468Z,100736.13
2018-03-30T04:32:26.232Z,100731.98
2018-03-30T04:34:51.983Z,100744.45
2018-03-30T04:37:17.738Z,100745.37
2018-03-30T04:39:43.490Z,100747.54
2018-03-30T04:42:09.256Z,100741.68
2018-03-30T04:44:35.006Z,100738.58
2018-03-30T04:47:00.766Z,100734.58
2018-03-30T04:49:26.517Z,100729.33
2018-03-30T04:51:52.271Z,100725.57
2018-03-30T04:54:18.012Z,100714.88
2018-03-30T04:56:43.759Z,100711.76
2018-03-30T04:59:09.518Z,100712.67
2018-03-30T05:01:35.279Z,100723.70
2018-03-30T05:04:01.026Z,100730.08
2018-03-30T05:06:26.781Z,100728.42
2018-03-30T05:08:52.534Z,100730.44
2018-03-30T05:11:18.289Z,100729.23
2018-03-30T05:13:44.049Z,100725.77
2018-03-30T05:16:09.797Z,100731.17
2018-03-30T05:18:35.574Z,100728.37
2018-03-30T05:21:01.340Z,100724.36
2018-03-30T05:23:27.095Z,100722.85
2018-03-30T05:25:52.826Z,100720.77
2018-03-30T05:28:18.572Z,100716.47
2018-03-30T05:30:44.311Z,100713.11
2018-03-30T05:33:10.079Z,100715.42
2018-03-30T05:35:35.813Z,100721.68
2018-03-30T05:38:01.549Z,100717.56
2018-03-30T05:40:27.289Z,100727.34
2018-03-30T05:42:53.046Z,100717.06
2018-03-30T05:45:18.811Z,100721.39
2018-03-30T05:47:44.554Z,100726.70
2018-03-30T05:50:10.335Z,100723.63
2018-03-30T05:52:36.092Z,100714.20
2018-03-30T05:55:01.860Z,100715.17
2018-03-30T05:57:27.619Z,100725.61
2018-03-30T05:59:53.361Z,100736.05
2018-03-30T06:02:19.117Z,100744.83
2018-03-30T06:04:44.879Z,100748.53
2018-03-30T06:07:10.640Z,100745.68
2018-03-30T06:09:36.397Z,100743.08
2018-03-30T06:12:02.157Z,100752.05
2018-03-30T06:14:27.923Z,100752.30
2018-03-30T06:16:53.710Z,100754.46
2018-03-30T06:19:19.427Z,100751.42
2018-03-30T06:21:45.177Z,100754.13
2018-03-30T06:24:10.932Z,100750.70
2018-03-30T06:26:36.686Z,100747.71
2018-03-30T06:29:02.466Z,100754.16
2018-03-30T06:31:28.207Z,100751.78
2018-03-30T06:33:53.966Z,100752.44
2018-03-30T06:36:19.722Z,100749.13
2018-03-30T06:38:45.469Z,100755.69
2018-03-30T06:41:11.239Z,100752.94
2018-03-30T06:43:36.986Z,100756.48
2018-03-30T06:46:02.762Z,100757.89
2018-03-30T06:48:28.507Z,100758.87
2018-03-30T06:50:54.267Z,100755.81
2018-03-30T06:53:20.020Z,100757.59
2018-03-30T06:55:45.778Z,100761.34
2018-03-30T06:58:11.527Z,100761.27
2018-03-30T07:00:37.283Z,100763.13
2018-03-30T07:03:03.035Z,100767.00
2018-03-30T07:05:28.788Z,100769.31
2018-03-30T07:07:54.531Z,100762.43
2018-03-30T07:10:20.297Z,100768.14
2018-03-30T07:12:46.046Z,100769.50
2018-03-30T07:15:11.794Z,100763.05
2018-03-30T07:17:37.534Z,100769.13
2018-03-30T07:20:03.297Z,100764.43
2018-03-30T07:22:29.055Z,100763.98
2018-03-30T07:24:54.786Z,100764.45
2018-03-30T07:27:20.529Z,100773.31
2018-03-30T07:29:46.263Z,100765.17
2018-03-30T07:32:12.009Z,100760.41
2018-03-30T07:34:37.752Z,100766.58
2018-03-30T07:37:03.510Z,100766.52
2018-03-30T07:39:29.255Z,100761.18
2018-03-30T07:41:55.003Z,100761.72
2018-03-30T07:44:20.766Z,100764.92
2018-03-30T07:46:46.516Z,100767.59
2018-03-30T07:49:12.265Z,100759.41
2018-03-30T07:51:38.044Z,100758.11
2018-03-30T07:54:03.835Z,100762.80
2018-03-30T07:56:29.554Z,100765.05
2018-03-30T07:58:55.309Z,100767.34
2018-03-30T08:01:21.080Z,100760.34
2018-03-30T08:03:46.826Z,100755.15
2018-03-30T08:06:12.599Z,100759.90
2018-03-30T08:08:38.347Z,100749.98
2018-03-30T08:11:04.089Z,100757.42
2018-03-30T08:13:29.829Z,100757.49
2018-03-30T08:15:55.594Z,100755.73
2018-03-30T08:18:21.325Z,100758.36
2018-03-30T08:20:47.074Z,100756.14
2018-03-30T08:23:12.815Z,100762.19
2018-03-30T08:25:38.562Z,100762.27
2018-03-30T08:28:04.315Z,100764.48
2018-03-30T08:30:30.059Z,100770.61
2018-03-30T08:32:55.809Z,100763.67
2018-03-30T08:35:21.538Z,100764.95
2018-03-30T08:37:47.305Z,100756.25
2018-03-30T08:40:13.057Z,100758.00
2018-03-30T08:42:38.826Z,100751.91
2018-03-30T08:45:04.594Z,100755.41
2018-03-30T08:47:30.344Z,100751.03
2018-03-30T08:49:56.083Z,100751.40
2018-03-30T08:52:21.842Z,100754.06
2018-03-30T08:54:47.602Z,100751.82
2018-03-30T08:57:13.345Z,100758.87
2018-03-30T08:59:39.092Z,100757.55
2018-03-30T09:02:04.847Z,100754.00
2018-03-30T09:04:30.586Z,100761.50
2018-03-30T09:06:56.332Z,100753.17
2018-03-30T09:09:22.105Z,100755.34
2018-03-30T09:11:47.859Z,100744.83
2018-03-30T09:14:13.620Z,100747.47
2018-03-30T09:16:39.378Z,100752.80
2018-03-30T09:19:05.136Z,100761.05
2018-03-30T09:21:30.886Z,100760.16
2018-03-30T09:23:56.638Z,100751.78
2018-03-30T09:26:22.382Z,100760.56
2018-03-30T09:28:48.142Z,100758.45
2018-03-30T09:31:13.904Z,100760.62
2018-03-30T09:33:39.686Z,100758.45
2018-03-30T09:36:05.438Z,100756.19
2018-03-30T09:38:31.203Z,100749.02
2018-03-30T09:40:56.933Z,100750.87
2018-03-30T09:43:22.663Z,100750.96
2018-03-30T09:45:48.421Z,100757.19
2018-03-30T09:48:14.158Z,100747.88
2018-03-30T09:50:39.914Z,100745.52
2018-03-30T09:53:05.661Z,100739.59
2018-03-30T09:55:31.407Z,100741.06
2018-03-30T09:57:57.148Z,100740.62
2018-03-30T10:00:22.915Z,100734.48
2018-03-30T10:02:48.665Z,100732.23
2018-03-30T10:05:14.415Z,100733.75
2018-03-30T10:07:40.161Z,100723.23
2018-03-30T10:10:05.923Z,100720.88
2018-03-30T10:12:31.662Z,100716.17
2018-03-30T10:14:57.412Z,100720.28
2018-03-30T10:17:23.142Z,100720.34
2018-03-30T10:19:48.887Z,100717.02
2018-03-30T10:22:14.630Z,100708.97
2018-03-30T10:24:40.402Z,100713.75
2018-03-30T10:27:06.142Z,100707.69
2018-03-30T10:29:31.873Z,100703.49
2018-03-30T10:31:57.628Z,100693.20
2018-03-30T10:34:23.358Z,100697.55
2018-03-30T10:36:49.109Z,100690.30
2018-03-30T10:39:14.854Z,100695.66
2018-03-30T10:41:40.615Z,100701.52
2018-03-30T10:44:06.370Z,100703.83
2018-03-30T10:46:32.122Z,100706.83
2018-03-30T10:48:57.865Z,100704.14
2018-03-30T10:51:23.618Z,100701.63
2018-03-30T10:53:49.358Z,100691.91
2018-03-30T10:56:15.110Z,100695.27
2018-03-30T10:58:40.866Z,100694.39
2018-03-30T11:01:06.619Z,100697.39
2018-03-30T11:03:32.352Z,100693.50
2018-03-30T11:05:58.103Z,100690.47
2018-03-30T11:08:23.849Z,100688.81
2018-03-30T11:10:49.610Z,100685.38
2018-03-30T11:13:15.346Z,100680.08
2018-03-30T11:15:41.090Z,100686.09
2018-03-30T11:18:06.830Z,100691.99
2018-03-30T11:20:32.586Z,100683.16
2018-03-30T11:22:58.318Z,100682.92
2018-03-30T11:25:24.054Z,100688.41
2018-03-30T11:27:49.807Z,100682.77
2018-03-30T11:30:15.538Z,100679.38
2018-03-30T11:32:41.282Z,100686.73
2018-03-30T11:35:07.040Z,100680.50
2018-03-30T11:37:32.799Z,100676.50
2018-03-30T11:39:58.547Z,100673.98
2018-03-30T11:42:24.288Z,100676.38
2018-03-30T11:44:50.025Z,100664.41
2018-03-30T11:47:15.813Z,100666.16
2018-03-30T11:49:41.570Z,100665.02
2018-03-30T11:52:07.346Z,100663.61
2018-03-30T11:54:33.083Z,100664.88
2018-03-30T11:56:58.832Z,100660.48
2018-03-30T11:59:24.563Z,100656.45
2018-03-30T12:01:50.334Z,100655.31
2018-03-30T12:04:16.053Z,100658.70
2018-03-30T12:06:41.782Z,100647.76
2018-03-30T12:09:07.532Z,100650.53
2018-03-30T12:11:33.265Z,100643.44
2018-03-30T12:13:59.010Z,100638.42
2018-03-30T12:16:24.739Z,100633.23
2018-03-30T12:18:50.491Z,100627.52
2018-03-30T12:21:16.222Z,100626.02
2018-03-30T12:23:41.994Z,100618.19
2018-03-30T12:26:07.754Z,100615.55
2018-03-30T12:28:33.509Z,100606.11
2018-03-30T12:30:59.280Z,100612.50
2018-03-30T12:33:25.038Z,100607.38
2018-03-30T12:35:50.891Z,100588.69
2018-03-30T12:38:16.664Z,100591.16
2018-03-30T12:40:42.413Z,100582.28
2018-03-30T12:43:08.161Z,100583.97
2018-03-30T12:45:34.007Z,100584.80
2018-03-30T12:47:59.758Z,100590.22
2018-03-30T12:50:25.520Z,100583.27
2018-03-30T12:52:51.259Z,100581.30
2018-03-30T12:55:16.996Z,100566.95
2018-03-30T12:57:42.759Z,100565.22
2018-03-30T13:00:08.500Z,100558.27
2018-03-30T13:02:34.235Z,100552.19
2018-03-30T13:04:59.990Z,100546.66
2018-03-30T13:07:25.775Z,100545.28
2018-03-30T13:09:51.528Z,100538.22
2018-03-30T13:12:17.288Z,100536.13
2018-03-30T13:14:43.124Z,100545.86
2018-03-30T13:17:08.865Z,100545.31
2018-03-30T13:19:34.627Z,100533.52
2018-03-30T13:22:00.357Z,100538.62
2018-03-30T13:24:26.101Z,100535.20
2018-03-30T13:26:51.873Z,100529.06
2018-03-30T13:29:17.630Z,100528.89
2018-03-30T13:31:43.380Z,100523.64
2018-03-30T13:34:09.145Z,100522.31
2018-03-30T13:36:34.930Z,100521.45
2018-03-30T13:39:00.691Z,100518.25
2018-03-30T13:41:26.438Z,100508.58
2018-03-30T13:43:52.736Z,100507.86
2018-03-30T13:46:18.484Z,100503.15
2018-03-30T13:48:44.243Z,100504.19
2018-03-30T13:51:15.034Z,100500.28
2018-03-30T13:53:47.870Z,100484.83
2018-03-30T13:56:16.500Z,100488.83
2018-03-30T13:58:46.243Z,100486.38
2018-03-30T14:01:17.866Z,100488.62
2018-03-30T14:03:49.641Z,100477.72
2018-03-30T14:06:22.478Z,100471.64
2018-03-30T14:08:55.120Z,100477.80
2018-03-30T14:11:22.594Z,100476.74
2018-03-30T14:13:48.375Z,100470.78
2018-03-30T14:16:26.197Z,100468.11
2018-03-30T14:18:53.731Z,100477.34
2018-03-30T14:21:24.269Z,100471.66
2018-03-30T14:23:52.952Z,100470.59
2018-03-30T14:26:32.613Z,100469.67
2018-03-30T14:29:03.250Z,100468.38
2018-03-30T14:31:37.354Z,100463.55
2018-03-30T14:34:06.942Z,100456.17
2018-03-30T14:36:51.632Z,100460.42
2018-03-30T14:42:11.935Z,100437.62
2018-03-30T14:44:47.493Z,100423.87
2018-03-30T14:47:16.206Z,100426.17
2018-03-30T14:49:45.742Z,100421.63
2018-03-30T14:52:16.489Z,100421.44
2018-03-30T14:54:43.210Z,100414.49
2018-03-30T14:57:09.918Z,100415.83
2018-03-30T15:02:48.155Z,100414.27
2018-03-30T15:05:15.871Z,100412.67
2018-03-30T15:11:02.421Z,100401.42
2018-03-30T15:13:31.935Z,100399.87
2018-03-30T15:19:01.416Z,100410.98
2018-03-30T15:21:44.090Z,100422.38
2018-03-30T15:24:10.790Z,100419.30
2018-03-30T15:26:38.393Z,100422.02
2018-03-30T15:29:05.962Z,100417.20
2018-03-30T15:31:56.429Z,100414.48
2018-03-30T15:34:22.199Z,100420.75
2018-03-30T15:36:49.975Z,100423.41
2018-03-30T15:39:16.358Z,100428.09
2018-03-30T15:41:45.943Z,100433.08
2018-03-30T15:44:12.015Z,100434.41
2018-03-30T15:46:39.570Z,100435.73
2018-03-30T15:49:05.333Z,100440.39
2018-03-30T15:51:32.082Z,100455.23
2018-03-30T15:53:57.701Z,100460.14
2018-03-30T15:56:26.470Z,100461.84
2018-03-30T15:58:52.226Z,100454.84
2018-03-30T16:01:17.969Z,100458.08
2018-03-30T16:03:43.707Z,100455.01
2018-03-30T16:06:09.486Z,100460.80
2018-03-30T16:08:35.222Z,100447.72
2018-03-30T16:13:57.425Z,100443.50
2018-03-30T16:16:23.234Z,100447.85
2018-03-30T16:18:54.957Z,100441.83
2018-03-30T16:21:20.578Z,100441.78
2018-03-30T16:23:46.187Z,100438.39
2018-03-30T16:26:11.813Z,100440.17
2018-03-30T16:28:37.414Z,100441.57
2018-03-30T16:31:03.042Z,100447.28
2018-03-30T16:33:28.650Z,100438.16
2018-03-30T16:35:54.262Z,100440.73
2018-03-30T16:38:19.888Z,100442.11
2018-03-30T16:40:45.497Z,100441.64
2018-03-30T16:43:11.109Z,100436.03
2018-03-30T16:45:36.782Z,100428.66
2018-03-30T16:48:02.428Z,100429.98
2018-03-30T16:50:28.051Z,100428.28
2018-03-30T16:52:53.686Z,100429.67
2018-03-30T16:55:19.326Z,100427.55
2018-03-30T16:57:44.965Z,100419.70
2018-03-30T17:00:10.598Z,100414.09
2018-03-30T17:02:36.214Z,100423.25
2018-03-30T17:05:01.831Z,100432.89
2018-03-30T17:07:27.457Z,100429.03
2018-03-30T17:09:53.068Z,100426.44
2018-03-30T17:12:18.706Z,100424.72
2018-03-30T17:14:44.331Z,100425.13
2018-03-30T17:17:09.962Z,100421.73
2018-03-30T17:19:35.571Z,100419.58
2018-03-30T17:22:01.232Z,100420.92
2018-03-30T17:24:26.846Z,100408.31
2018-03-30T17:26:52.858Z,100417.50
2018-03-30T17:29:18.610Z,100413.16
2018-03-30T17:31:44.410Z,100417.98
2018-03-30T17:34:10.158Z,100413.23
2018-03-30T17:36:35.799Z,100415.86
2018-03-30T17:39:01.446Z,100412.86
2018-03-30T17:41:27.092Z,100420.24
2018-03-30T17:43:52.710Z,100422.02
2018-03-30T17:46:18.358Z,100424.23
2018-03-30T17:48:43.981Z,100425.56
2018-03-30T17:51:09.615Z,100436.90
2018-03-30T17:53:35.360Z,100440.85
2018-03-30T17:56:00.989Z,100444.77
2018-03-30T17:58:26.660Z,100446.52
2018-03-30T18:00:52.276Z,100446.55
2018-03-30T18:03:17.979Z,100442.19
2018-03-30T18:05:43.618Z,100440.45
2018-03-30T18:08:09.231Z,100431.74
2018-03-30T18:10:34.854Z,100440.45
2018-03-30T18:13:00.452Z,100436.55
2018-03-30T18:15:26.082Z,100440.03
2018-03-30T18:17:51.700Z,100428.75
2018-03-30T18:20:17.339Z,100429.20
2018-03-30T18:22:42.947Z,100435.28
2018-03-30T18:25:08.581Z,100443.98
2018-03-30T18:27:34.193Z,100445.28
2018-03-30T18:29:59.819Z,100435.28
2018-03-30T18:32:25.446Z,100439.22
2018-03-30T18:34:51.077Z,100436.62
2018-03-30T18:37:16.703Z,100434.86
2018-03-30T18:39:42.330Z,100435.73
2018-03-30T18:42:07.954Z,100432.25
2018-03-30T18:44:33.581Z,100425.73
2018-03-30T18:46:59.190Z,100423.56
2018-03-30T18:49:24.814Z,100432.28
2018-03-30T18:51:50.434Z,100436.64
2018-03-30T18:54:16.047Z,100440.09
2018-03-30T18:56:41.670Z,100423.57
2018-03-30T18:59:07.302Z,100425.31
2018-03-30T19:01:32.925Z,100433.13
2018-03-30T19:03:58.541Z,100423.99
2018-03-30T19:06:24.178Z,100427.92
2018-03-30T19:08:49.798Z,100430.95
2018-03-30T19:11:15.433Z,100427.05
2018-03-30T19:13:41.042Z,100427.06
2018-03-30T19:16:06.695Z,100427.91
2018-03-30T19:18:32.323Z,100424.89
2018-03-30T19:20:57.940Z,100421.83
2018-03-30T19:23:23.579Z,100426.60
2018-03-30T19:25:49.222Z,100418.77
2018-03-30T19:28:14.843Z,100420.53
2018-03-30T19:30:40.496Z,100409.22
2018-03-30T19:33:06.117Z,100411.39
2018-03-30T19:35:31.753Z,100414.45
2018-03-30T19:37:57.374Z,100413.13
2018-03-30T19:40:22.987Z,100412.27
2018-03-30T19:42:48.624Z,100413.57
2018-03-30T19:45:14.235Z,100417.05
2018-03-30T19:47:39.861Z,100420.09
2018-03-30T19:50:05.492Z,100411.41
2018-03-30T19:52:31.128Z,100407.03
2018-03-30T19:54:56.742Z,100409.66
2018-03-30T19:57:22.382Z,100411.39
2018-03-30T19:59:48.006Z,100416.18
2018-03-30T20:02:13.647Z,100419.67
2018-03-30T20:04:39.259Z,100410.94
2018-03-30T20:07:04.878Z,100407.47
2018-03-30T20:09:30.481Z,100407.05
2018-03-30T20:11:56.099Z,100406.61
2018-03-30T20:14:21.711Z,100407.02
2018-03-30T20:16:47.338Z,100402.69
2018-03-30T20:19:12.955Z,100402.68
2018-03-30T20:21:38.574Z,100410.51
2018-03-30T20:24:04.186Z,100414.44
2018-03-30T20:26:29.822Z,100408.31
2018-03-30T20:28:55.493Z,100400.48
2018-03-30T20:31:21.076Z,100404.86
2018-03-30T20:33:46.705Z,100406.15
2018-03-30T20:36:12.323Z,100408.77
2018-03-30T20:38:37.945Z,100396.16
2018-03-30T20:41:03.575Z,100400.08
2018-03-30T20:43:29.198Z,100402.25
2018-03-30T20:45:54.806Z,100400.07
2018-03-30T20:48:20.430Z,100397.48
2018-03-30T20:50:46.046Z,100393.97
2018-03-30T20:53:11.671Z,100393.97
2018-03-30T20:55:37.276Z,100392.23
2018-03-30T20:58:02.895Z,100397.02
2018-03-30T21:00:28.511Z,100383.55
2018-03-30T21:02:54.126Z,100383.55
2018-03-30T21:05:19.741Z,100383.10
2018-03-30T21:07:45.360Z,100389.64
2018-03-30T21:10:10.977Z,100387.05
2018-03-30T21:12:36.603Z,100385.28
2018-03-30T21:15:02.221Z,100383.99
2018-03-30T21:17:27.843Z,100379.22
2018-03-30T21:19:53.452Z,100372.70
2018-03-30T21:22:19.071Z,100380.94
2018-03-30T21:24:44.694Z,100377.04
2018-03-30T21:27:10.301Z,100386.16
2018-03-30T21:29:35.928Z,100373.99
2018-03-30T21:32:01.532Z,100382.70
2018-03-30T21:34:27.162Z,100368.75
2018-03-30T21:36:52.773Z,100371.37
2018-03-30T21:39:18.462Z,100370.96
2018-03-30T21:41:44.014Z,100357.02
2018-03-30T21:44:09.649Z,100358.33
2018-03-30T21:46:35.261Z,100354.01
2018-03-30T21:49:00.879Z,100349.64
2018-03-30T21:51:26.494Z,100343.13
2018-03-30T21:53:52.097Z,100352.70
2018-03-30T21:56:17.715Z,100359.22
2018-03-30T21:58:43.340Z,100362.69
2018-03-30T22:01:08.952Z,100356.16
2018-03-30T22:03:34.579Z,100356.16
2018-03-30T22:06:00.197Z,100349.19
2018-03-30T22:08:25.810Z,100345.30
2018-03-30T22:10:51.438Z,100343.53
2018-03-30T22:13:17.046Z,100342.67
2018-03-30T22:15:43.681Z,100346.59
2018-03-30T22:18:09.294Z,100341.83
2018-03-30T22:20:34.914Z,100337.91
2018-03-30T22:23:00.534Z,100333.12
2018-03-30T22:25:26.166Z,100327.46
2018-03-30T22:27:51.771Z,100337.47
2018-03-30T22:30:17.384Z,100337.01
2018-03-30T22:32:42.996Z,100328.78
2018-03-30T22:35:08.623Z,100340.07
2018-03-30T22:37:34.245Z,100333.11
2018-03-30T22:39:59.850Z,100334.84
2018-03-30T22:42:25.488Z,100331.38
2018-03-30T22:44:51.309Z,100329.18
2018-03-30T22:47:16.953Z,100323.11
2018-03-30T22:49:42.573Z,100325.28
2018-03-30T22:52:08.206Z,100310.09
2018-03-30T22:54:33.818Z,100310.09
2018-03-30T22:56:59.522Z,100305.31
2018-03-30T22:59:25.184Z,100309.65
2018-03-30T23:01:50.898Z,100303.11
2018-03-30T23:04:16.586Z,100320.05
2018-03-30T23:06:42.234Z,100308.78
2018-03-30T23:09:07.847Z,100306.17
2018-03-30T23:11:33.612Z,100307.04
2018-03-30T23:13:59.369Z,100302.25
2018-03-30T23:16:25.157Z,100302.69
2018-03-30T23:18:50.763Z,100291.84
2018-03-30T23:21:16.592Z,100298.33
2018-03-30T23:23:42.431Z,100296.16
2018-03-30T23:26:08.482Z,100280.95
2018-03-30T23:28:34.235Z,100283.14
2018-03-30T23:31:03.896Z,100283.14
2018-03-30T23:33:29.827Z,100283.58
2018-03-30T23:35:55.598Z,100283.56
2018-03-30T23:38:21.215Z,100276.64
2018-03-30T23:40:46.917Z,100284.45
2018-03-30T23:43:12.722Z,100279.23
2018-03-30T23:45:38.416Z,100263.16
2018-03-30T23:48:04.127Z,100254.02
2018-03-30T23:50:29.925Z,100249.25
2018-03-30T23:52:55.604Z,100240.98
2018-03-30T23:55:21.404Z,100243.16
2018-03-30T23:57:47.046Z,100239.27
